Airfield :
LOGIN :

Register | Disclaimer

   EN    FR    IT 

 










Legend :    VFR   Marginal VFR   IFR   Intensive IFR   Very Intensive IFR
Visi :
Ceiling :
>= 8 km
>= 3000ft
5 to 8 km
1000 to 3000 ft
1500m to 5 km
500 to 1000 ft
800 to 1500m
200 to 500 ft
< 800m
< 200 ft
Symbols :   Thunderstorms  Fog  Heavy snow  Heavy precipitations  Wind > 20 kt
SIGMETs :     Misc.  Thunderstorms  Icing  Turbulence  Mountain Waves  Volcanic Ashes






- Airport Elevation : 171 ft
- IATA code : EGC


LFBE - Bergerac

CURRENT METAR :
  • 271500Z AUTO 27022G34KT 9999 -RA BKN021/// OVC027/// ///TCU 14/11 Q1012 BECMG 32013KT BKN030

EXPIRED METARs :
  • 271430Z AUTO 27026G37KT 9999 BKN022/// OVC028/// ///TCU 14/11 Q1011 BECMG 32013KT BKN030
  • 271400Z AUTO 27022KT 9999 BKN018/// OVC027/// ///TCU 15/12 Q1010 BECMG BKN030
  • 271330Z AUTO 27020KT 9999 FEW008/// BKN016/// OVC027/// ///TCU 14/13 Q1010 BECMG BKN030
  • 271300Z AUTO 27020KT 6000 -RA BKN013 OVC021 13/12 Q1010 TEMPO 29015G28KT 3000 RADZ BECMG BKN030
  • 271230Z AUTO 26022KT 9999 4600 OVC012 13/12 Q1010 TEMPO 3000 RADZ BECMG 32013KT BKN030

TAF AMD TAF LFBE
Valid from the 27 at 14:00 until the 28 at 12:00 UTC


271448Z 2714/2812 29015G28KT 9999 BKN020
TEMPO 2714/2715 29025G35KT 4000 SHRA SCT030TCU
BECMG 2715/2717 32013KT
BECMG 2720/2722 VRB02KT
BECMG 2800/2803 12005KT
PROB40
TEMPO 2803/2806 0500 FG
FM280600 12005KT 6000 BKN008
TEMPO 2806/2812 2000 -DZ OVC005



MET'MAP, your aeronautical weather chart ! - Copyright ORBIFLY December 2007 - Disclaimer

ORBIFLY MET'MAP TEAM :

Programming & Development : Alexandra Zaïnal
Concept & original design : Baudouin d'Aumeries
Assistance for programming : Marc-Olivier Méhu
Technical & hardware support : Manuel Goepfert

Contact : metmap@orbifly.com




SOURCES & CREDITS :

   NOAA